createdAt,value
2023-09-17T00:01:16.504Z,61.41
2023-09-17T00:03:43.467Z,61.21
2023-09-17T00:06:10.260Z,61.41
2023-09-17T00:08:37.637Z,61.66
2023-09-17T00:11:04.392Z,61.26
2023-09-17T00:13:31.943Z,61.23
2023-09-17T00:15:58.960Z,61.52
2023-09-17T00:18:25.690Z,61.16
2023-09-17T00:20:52.380Z,61.60
2023-09-17T00:23:19.051Z,61.63
2023-09-17T00:25:45.974Z,61.55
2023-09-17T00:28:12.697Z,61.53
2023-09-17T00:30:39.483Z,61.48
2023-09-17T00:33:06.187Z,61.44
2023-09-17T00:35:32.919Z,61.33
2023-09-17T00:37:59.784Z,61.33
2023-09-17T00:40:30.152Z,61.92
2023-09-17T00:42:56.898Z,61.49
2023-09-17T00:45:23.951Z,61.23
2023-09-17T00:47:50.907Z,61.35
2023-09-17T00:50:17.852Z,61.46
2023-09-17T00:52:44.904Z,61.75
2023-09-17T00:55:11.952Z,61.82
2023-09-17T00:57:41.015Z,61.88
2023-09-17T01:00:08.507Z,61.79
2023-09-17T01:02:35.518Z,61.77
2023-09-17T01:05:02.614Z,61.60
2023-09-17T01:07:29.419Z,61.61
2023-09-17T01:09:56.261Z,61.75
2023-09-17T01:12:23.014Z,61.61
2023-09-17T01:14:49.835Z,61.88
2023-09-17T01:17:16.600Z,61.66
2023-09-17T01:19:43.425Z,61.79
2023-09-17T01:22:25.163Z,63.12
2023-09-17T01:25:05.481Z,62.68
2023-09-17T01:27:36.151Z,61.71
2023-09-17T01:30:03.315Z,61.73
2023-09-17T01:32:29.982Z,61.52
2023-09-17T01:34:57.797Z,61.80
2023-09-17T01:37:35.601Z,61.88
2023-09-17T01:40:09.260Z,62.86
2023-09-17T01:42:36.349Z,62.04
2023-09-17T01:45:04.047Z,62.04
2023-09-17T01:47:31.892Z,61.92
2023-09-17T01:49:59.138Z,62.07
2023-09-17T01:52:28.880Z,62.65
2023-09-17T01:54:55.644Z,62.02
2023-09-17T01:57:22.349Z,62.16
2023-09-17T01:59:49.250Z,62.29
2023-09-17T02:02:16.044Z,62.06
2023-09-17T02:04:43.474Z,62.02
2023-09-17T02:07:10.380Z,62.53
2023-09-17T02:09:37.029Z,62.26
2023-09-17T02:12:04.065Z,62.24
2023-09-17T02:14:30.851Z,62.27
2023-09-17T02:16:57.547Z,62.28
2023-09-17T02:19:24.328Z,62.06
2023-09-17T02:21:51.116Z,62.06
2023-09-17T02:24:17.737Z,61.99
2023-09-17T02:26:44.688Z,62.09
2023-09-17T02:29:11.347Z,62.05
2023-09-17T02:31:38.469Z,62.07
2023-09-17T02:34:05.283Z,61.88
2023-09-17T02:36:32.160Z,62.00
2023-09-17T02:38:58.915Z,61.95
2023-09-17T02:41:25.778Z,62.11
2023-09-17T02:43:52.665Z,61.92
2023-09-17T02:46:19.735Z,62.13
2023-09-17T02:48:47.065Z,61.96
2023-09-17T02:51:13.746Z,62.09
2023-09-17T02:53:40.480Z,62.24
2023-09-17T02:56:07.105Z,62.18
2023-09-17T02:58:33.809Z,62.20
2023-09-17T03:01:00.674Z,62.01
2023-09-17T03:03:27.421Z,62.12
2023-09-17T03:05:54.654Z,62.34
2023-09-17T03:08:22.786Z,63.21
2023-09-17T03:10:59.037Z,63.32
2023-09-17T03:13:25.838Z,62.13
2023-09-17T03:15:59.057Z,63.05
2023-09-17T03:18:26.586Z,62.71
2023-09-17T03:20:53.483Z,62.87
2023-09-17T03:23:20.188Z,62.71
2023-09-17T03:25:47.322Z,62.92
2023-09-17T03:28:14.222Z,63.13
2023-09-17T03:30:42.454Z,63.26
2023-09-17T03:33:09.259Z,62.76
2023-09-17T03:35:46.082Z,62.78
2023-09-17T03:38:13.439Z,62.97
2023-09-17T03:40:40.227Z,62.75
2023-09-17T03:43:07.937Z,62.67
2023-09-17T03:45:35.210Z,62.57
2023-09-17T03:48:02.216Z,62.59
2023-09-17T03:50:29.662Z,62.61
2023-09-17T03:52:59.881Z,62.75
2023-09-17T03:55:26.902Z,62.50
2023-09-17T03:57:56.673Z,62.68
2023-09-17T04:00:25.005Z,62.41
2023-09-17T04:02:52.734Z,62.56
2023-09-17T04:05:19.946Z,62.42
2023-09-17T04:07:47.480Z,62.62
2023-09-17T04:10:15.245Z,62.46
2023-09-17T04:12:43.106Z,62.28
2023-09-17T04:15:12.082Z,62.43
2023-09-17T04:17:38.804Z,62.39
2023-09-17T04:20:06.410Z,62.39
2023-09-17T04:22:33.106Z,62.38
2023-09-17T04:24:59.747Z,62.65
2023-09-17T04:27:26.535Z,62.34
2023-09-17T04:29:53.450Z,62.55
2023-09-17T04:32:20.493Z,62.46
2023-09-17T04:34:47.566Z,62.38
2023-09-17T04:37:14.475Z,62.53
2023-09-17T04:39:41.142Z,62.58
2023-09-17T04:42:07.939Z,62.71
2023-09-17T04:44:35.334Z,62.78
2023-09-17T04:47:03.722Z,62.59
2023-09-17T04:49:30.774Z,62.52
2023-09-17T04:51:57.826Z,62.54
2023-09-17T04:54:24.696Z,62.70
2023-09-17T04:56:52.026Z,62.77
2023-09-17T04:59:18.848Z,62.54
2023-09-17T05:01:45.937Z,62.71
2023-09-17T05:04:12.632Z,62.64
2023-09-17T05:06:39.344Z,62.66
2023-09-17T05:09:06.012Z,62.94
2023-09-17T05:11:33.570Z,62.69
2023-09-17T05:14:00.419Z,63.06
2023-09-17T05:16:27.364Z,62.73
2023-09-17T05:18:54.238Z,62.82
2023-09-17T05:21:20.910Z,62.79
2023-09-17T05:23:47.702Z,63.03
2023-09-17T05:26:14.537Z,63.14
2023-09-17T05:28:41.891Z,63.03
2023-09-17T05:31:08.843Z,63.28
2023-09-17T05:33:35.538Z,63.23
2023-09-17T05:36:04.194Z,63.47
2023-09-17T05:38:30.946Z,63.99
2023-09-17T05:40:57.792Z,64.07
2023-09-17T05:43:25.894Z,63.93
2023-09-17T05:45:52.623Z,63.74
2023-09-17T05:48:19.441Z,63.63
2023-09-17T05:50:46.240Z,63.61
2023-09-17T05:53:12.942Z,63.85
2023-09-17T05:55:39.614Z,63.61
2023-09-17T05:58:06.610Z,64.12
2023-09-17T06:00:33.299Z,64.05
2023-09-17T06:03:00.007Z,64.37
2023-09-17T06:05:26.672Z,64.78
2023-09-17T06:07:53.828Z,65.21
2023-09-17T06:10:20.957Z,65.24
2023-09-17T06:12:48.015Z,65.66
2023-09-17T06:15:15.166Z,65.81
2023-09-17T06:17:43.601Z,65.94
2023-09-17T06:20:10.481Z,65.81
2023-09-17T06:22:37.606Z,65.68
2023-09-17T06:25:05.143Z,65.59
2023-09-17T06:27:31.769Z,65.29
2023-09-17T06:29:58.582Z,64.82
2023-09-17T06:32:25.489Z,64.46
2023-09-17T06:34:52.451Z,64.14
2023-09-17T06:37:19.518Z,64.29
2023-09-17T06:39:48.687Z,64.30
2023-09-17T06:42:15.377Z,64.56
2023-09-17T06:44:41.954Z,64.98
2023-09-17T06:47:08.891Z,65.01
2023-09-17T06:49:35.682Z,65.07
2023-09-17T06:52:02.497Z,65.36
2023-09-17T06:54:29.122Z,65.22
2023-09-17T06:56:55.749Z,65.50
2023-09-17T06:59:22.432Z,65.59
2023-09-17T07:01:49.363Z,65.35
2023-09-17T07:04:16.286Z,65.34
2023-09-17T07:06:42.892Z,65.11
2023-09-17T07:09:09.594Z,64.77
2023-09-17T07:11:36.211Z,64.73
2023-09-17T07:14:03.316Z,65.00
2023-09-17T07:16:30.034Z,64.48
2023-09-17T07:18:56.734Z,64.21
2023-09-17T07:21:23.684Z,64.29
2023-09-17T07:23:50.558Z,64.29
2023-09-17T07:26:17.437Z,64.21
2023-09-17T07:28:44.059Z,64.29
2023-09-17T07:31:14.682Z,64.08
2023-09-17T07:33:41.397Z,63.96
2023-09-17T07:36:08.103Z,63.66
2023-09-17T07:38:35.040Z,63.51
2023-09-17T07:41:01.818Z,63.34
2023-09-17T07:43:28.619Z,62.29
2023-09-17T07:45:55.437Z,62.09
2023-09-17T07:48:22.233Z,61.84
2023-09-17T07:51:02.480Z,60.30
2023-09-17T07:53:29.244Z,61.37
2023-09-17T07:55:55.954Z,61.06
2023-09-17T07:58:22.722Z,60.53
2023-09-17T08:00:49.443Z,59.83
2023-09-17T08:03:19.771Z,58.37
2023-09-17T08:05:50.577Z,58.09
2023-09-17T08:08:17.593Z,58.27
2023-09-17T08:10:44.310Z,58.23
2023-09-17T08:13:11.055Z,58.19
2023-09-17T08:15:37.758Z,57.77
2023-09-17T08:18:04.732Z,57.66
2023-09-17T08:20:31.509Z,57.83
2023-09-17T08:22:58.279Z,57.79
2023-09-17T08:25:25.450Z,57.49
2023-09-17T08:27:53.020Z,57.49
2023-09-17T08:30:20.042Z,57.21
2023-09-17T08:32:47.227Z,57.20
2023-09-17T08:35:14.010Z,56.69
2023-09-17T08:37:40.728Z,55.98
2023-09-17T08:40:08.368Z,55.78
2023-09-17T08:42:35.568Z,55.58
2023-09-17T08:45:03.624Z,55.92
2023-09-17T08:47:30.544Z,54.98
2023-09-17T08:49:57.445Z,54.79
2023-09-17T08:52:26.980Z,54.33
2023-09-17T08:54:54.668Z,54.16
2023-09-17T08:57:23.557Z,53.91
2023-09-17T08:59:58.311Z,53.97
2023-09-17T09:02:29.956Z,53.23
2023-09-17T09:04:57.921Z,54.21
2023-09-17T09:07:25.066Z,52.98
2023-09-17T09:09:52.734Z,53.80
2023-09-17T09:12:20.236Z,52.93
2023-09-17T09:14:48.330Z,52.80
2023-09-17T09:17:15.120Z,52.83
2023-09-17T09:19:41.983Z,52.52
2023-09-17T09:22:08.782Z,52.47
2023-09-17T09:24:42.154Z,51.36
2023-09-17T09:27:08.956Z,52.47
2023-09-17T09:29:35.610Z,52.28
2023-09-17T09:32:02.366Z,52.12
2023-09-17T09:34:29.320Z,51.66
2023-09-17T09:36:55.941Z,52.48
2023-09-17T09:39:23.377Z,51.75
2023-09-17T09:41:50.237Z,51.96
2023-09-17T09:44:16.876Z,51.93
2023-09-17T09:46:43.542Z,51.78
2023-09-17T09:49:10.190Z,51.97
2023-09-17T09:51:36.832Z,52.30
2023-09-17T09:54:04.790Z,50.23
2023-09-17T09:56:31.383Z,50.81
2023-09-17T09:58:59.813Z,50.27
2023-09-17T10:01:26.907Z,49.04
2023-09-17T10:03:58.939Z,47.34
2023-09-17T10:06:25.757Z,48.67
2023-09-17T10:08:52.688Z,48.31
2023-09-17T10:11:19.635Z,47.57
2023-09-17T10:13:46.598Z,46.75
2023-09-17T10:16:13.506Z,46.71
2023-09-17T10:18:42.043Z,46.34
2023-09-17T10:21:10.116Z,46.30
2023-09-17T10:23:37.848Z,46.05
2023-09-17T10:26:06.787Z,46.39
2023-09-17T10:28:34.419Z,46.20
2023-09-17T10:31:02.559Z,46.10
2023-09-17T10:33:32.266Z,46.16
2023-09-17T10:36:00.582Z,46.15
2023-09-17T10:38:28.636Z,43.91
2023-09-17T10:40:56.894Z,43.79
2023-09-17T10:43:25.134Z,43.32
2023-09-17T10:45:53.742Z,43.86
2023-09-17T10:48:21.879Z,43.41
2023-09-17T10:50:50.012Z,43.72
2023-09-17T10:53:16.876Z,44.15
2023-09-17T10:55:51.928Z,42.53
2023-09-17T10:58:25.784Z,43.78
2023-09-17T11:00:54.382Z,44.06
2023-09-17T11:03:24.556Z,43.36
2023-09-17T11:05:54.468Z,43.21
2023-09-17T11:08:21.591Z,43.73
2023-09-17T11:10:48.331Z,41.57
2023-09-17T11:13:15.910Z,42.26
2023-09-17T11:15:43.737Z,42.24
2023-09-17T11:18:10.563Z,44.07
2023-09-17T11:20:57.706Z,42.07
2023-09-17T11:23:44.806Z,42.13
2023-09-17T11:26:15.589Z,41.54
2023-09-17T11:28:42.437Z,42.55
2023-09-17T11:31:10.298Z,42.70
2023-09-17T11:33:38.228Z,42.67
2023-09-17T11:36:05.995Z,42.57
2023-09-17T11:38:33.017Z,43.87
2023-09-17T11:41:04.734Z,41.12
2023-09-17T11:43:33.522Z,42.50
2023-09-17T11:46:03.477Z,41.84
2023-09-17T11:48:31.580Z,39.90
2023-09-17T11:51:23.286Z,40.30
2023-09-17T11:54:04.028Z,40.83
2023-09-17T11:56:36.144Z,41.01
2023-09-17T11:59:05.462Z,40.80
2023-09-17T12:01:35.376Z,41.14
2023-09-17T12:04:07.475Z,41.29
2023-09-17T12:07:00.672Z,41.75
2023-09-17T12:10:06.452Z,40.09
2023-09-17T12:12:36.014Z,41.82
2023-09-17T12:15:06.529Z,41.52
2023-09-17T12:17:34.668Z,41.41
2023-09-17T12:20:26.148Z,39.72
2023-09-17T12:23:24.732Z,40.30
2023-09-17T12:26:01.890Z,40.99
2023-09-17T12:28:29.159Z,41.21
2023-09-17T12:30:56.901Z,40.62
2023-09-17T12:33:24.436Z,40.90
2023-09-17T12:35:52.613Z,40.74
2023-09-17T12:38:19.284Z,40.45
2023-09-17T12:40:46.031Z,40.77
2023-09-17T12:43:12.740Z,40.49
2023-09-17T12:45:39.956Z,41.16
2023-09-17T12:48:07.200Z,41.54
2023-09-17T12:50:34.138Z,41.31
2023-09-17T12:53:01.421Z,41.30
2023-09-17T12:55:28.365Z,40.84
2023-09-17T12:57:55.204Z,41.20
2023-09-17T13:00:23.217Z,40.72
2023-09-17T13:02:50.100Z,39.80
2023-09-17T13:05:22.670Z,40.11
2023-09-17T13:07:49.678Z,39.90
2023-09-17T13:10:20.458Z,40.41
2023-09-17T13:12:47.171Z,40.52
2023-09-17T13:15:13.888Z,40.75
2023-09-17T13:17:40.691Z,40.81
2023-09-17T13:20:07.854Z,40.09
2023-09-17T13:22:34.783Z,40.52
2023-09-17T13:25:01.647Z,40.64
2023-09-17T13:27:29.137Z,40.92
2023-09-17T13:29:57.758Z,40.03
2023-09-17T13:32:24.694Z,40.37
2023-09-17T13:34:51.496Z,39.42
2023-09-17T13:37:19.330Z,39.29
2023-09-17T13:39:47.731Z,38.98
2023-09-17T13:42:14.406Z,39.57
2023-09-17T13:44:43.948Z,39.93
2023-09-17T13:47:13.158Z,39.96
2023-09-17T13:49:41.166Z,40.38
2023-09-17T13:52:07.797Z,41.62
2023-09-17T13:54:34.505Z,40.91
2023-09-17T13:57:01.210Z,40.72
2023-09-17T13:59:27.856Z,40.79
2023-09-17T14:01:54.664Z,40.69
2023-09-17T14:04:21.412Z,40.77
2023-09-17T14:06:48.266Z,40.76
2023-09-17T14:09:15.239Z,40.83
2023-09-17T14:11:44.444Z,40.47
2023-09-17T14:14:11.213Z,40.78
2023-09-17T14:16:38.024Z,40.99
2023-09-17T14:19:04.860Z,41.26
2023-09-17T14:21:31.497Z,40.89
2023-09-17T14:23:58.162Z,40.27
2023-09-17T14:26:24.791Z,40.26
2023-09-17T14:28:51.886Z,40.26
2023-09-17T14:31:18.808Z,39.59
2023-09-17T14:33:45.472Z,40.30
2023-09-17T14:36:12.257Z,38.71
2023-09-17T14:38:38.910Z,38.90
2023-09-17T14:41:05.547Z,38.42
2023-09-17T14:43:32.253Z,38.76
2023-09-17T14:45:58.942Z,39.48
2023-09-17T14:48:25.632Z,39.51
2023-09-17T14:50:53.401Z,40.14
2023-09-17T14:53:20.067Z,40.82
2023-09-17T14:55:46.884Z,40.05
2023-09-17T14:58:13.662Z,39.19
2023-09-17T15:00:40.376Z,39.09
2023-09-17T15:03:07.191Z,39.22
2023-09-17T15:05:34.092Z,38.97
2023-09-17T15:08:00.837Z,39.03
2023-09-17T15:10:27.466Z,38.97
2023-09-17T15:12:54.066Z,38.98
2023-09-17T15:15:20.768Z,38.74
2023-09-17T15:17:47.485Z,38.67
2023-09-17T15:20:14.322Z,38.95
2023-09-17T15:22:41.109Z,38.63
2023-09-17T15:25:08.038Z,38.82
2023-09-17T15:27:34.694Z,38.92
2023-09-17T15:30:01.391Z,38.97
2023-09-17T15:32:28.208Z,39.00
2023-09-17T15:34:55.251Z,39.14
2023-09-17T15:37:22.052Z,39.32
2023-09-17T15:39:48.674Z,39.48
2023-09-17T15:42:15.275Z,39.85
2023-09-17T15:44:41.919Z,40.20
2023-09-17T15:47:08.590Z,40.34
2023-09-17T15:49:35.415Z,40.39
2023-09-17T15:52:04.510Z,40.93
2023-09-17T15:54:32.416Z,40.84
2023-09-17T15:56:59.046Z,41.08
2023-09-17T15:59:25.835Z,41.20
2023-09-17T16:01:52.757Z,41.18
2023-09-17T16:04:19.532Z,41.18
2023-09-17T16:06:46.392Z,41.35
2023-09-17T16:09:13.064Z,41.26
2023-09-17T16:11:39.731Z,41.37
2023-09-17T16:14:06.470Z,41.24
2023-09-17T16:16:33.281Z,41.50
2023-09-17T16:18:59.906Z,41.57
2023-09-17T16:21:26.594Z,41.64
2023-09-17T16:23:53.558Z,41.80
2023-09-17T16:26:20.583Z,41.94
2023-09-17T16:28:47.371Z,41.85
2023-09-17T16:31:14.068Z,42.14
2023-09-17T16:33:41.039Z,42.41
2023-09-17T16:36:07.751Z,42.27
2023-09-17T16:38:34.782Z,42.53
2023-09-17T16:41:02.725Z,42.65
2023-09-17T16:43:30.743Z,42.99
2023-09-17T16:45:57.491Z,43.06
2023-09-17T16:48:24.183Z,43.36
2023-09-17T16:50:50.794Z,43.50
2023-09-17T16:53:17.485Z,44.26
2023-09-17T16:59:00.247Z,44.71
2023-09-17T17:01:27.084Z,44.95
2023-09-17T17:03:53.896Z,45.06
2023-09-17T17:06:20.989Z,45.11
2023-09-17T17:08:47.655Z,45.53
2023-09-17T17:11:14.628Z,45.74
2023-09-17T17:13:41.317Z,46.11
2023-09-17T17:16:08.040Z,46.30
2023-09-17T17:18:34.720Z,46.38
2023-09-17T17:21:04.414Z,46.48
2023-09-17T17:23:31.899Z,46.85
2023-09-17T17:25:58.897Z,47.17
2023-09-17T17:28:27.093Z,47.07
2023-09-17T17:30:56.077Z,47.77
2023-09-17T17:33:22.778Z,48.08
2023-09-17T17:35:49.648Z,47.94
2023-09-17T17:38:16.352Z,48.30
2023-09-17T17:40:43.041Z,48.76
2023-09-17T17:43:09.821Z,48.68
2023-09-17T17:45:36.767Z,49.10
2023-09-17T17:48:03.562Z,49.56
2023-09-17T17:50:30.683Z,49.58
2023-09-17T17:52:57.512Z,50.07
2023-09-17T17:55:24.215Z,50.67
2023-09-17T17:57:50.814Z,50.37
2023-09-17T18:00:17.460Z,50.66
2023-09-17T18:02:44.393Z,50.76
2023-09-17T18:05:11.259Z,50.74
2023-09-17T18:07:39.085Z,50.99
2023-09-17T18:10:08.303Z,51.25
2023-09-17T18:12:35.783Z,51.70
2023-09-17T18:15:07.256Z,53.37
2023-09-17T18:17:34.275Z,51.89
2023-09-17T18:20:01.568Z,51.80
2023-09-17T18:22:28.345Z,52.14
2023-09-17T18:24:55.178Z,52.10
2023-09-17T18:27:21.921Z,52.65
2023-09-17T18:29:49.144Z,52.66
2023-09-17T18:32:15.858Z,52.78
2023-09-17T18:34:42.560Z,52.71
2023-09-17T18:37:09.274Z,52.83
2023-09-17T18:39:35.951Z,53.38
2023-09-17T18:42:02.638Z,53.16
2023-09-17T18:44:29.398Z,53.66
2023-09-17T18:46:56.770Z,53.83
2023-09-17T18:49:23.507Z,53.86
2023-09-17T18:51:50.129Z,53.70
2023-09-17T18:54:16.832Z,54.15
2023-09-17T18:56:44.063Z,54.41
2023-09-17T18:59:11.683Z,55.03
2023-09-17T19:01:39.116Z,54.51
2023-09-17T19:04:05.880Z,54.67
2023-09-17T19:06:32.582Z,54.49
2023-09-17T19:08:59.306Z,54.25
2023-09-17T19:11:28.281Z,54.90
2023-09-17T19:13:55.098Z,54.12
2023-09-17T19:16:21.843Z,54.24
2023-09-17T19:18:48.522Z,54.32
2023-09-17T19:21:16.643Z,54.22
2023-09-17T19:23:45.257Z,54.78
2023-09-17T19:26:13.976Z,54.96
2023-09-17T19:28:40.806Z,54.74
2023-09-17T19:31:08.005Z,54.71
2023-09-17T19:33:34.749Z,54.38
2023-09-17T19:36:01.427Z,54.64
2023-09-17T19:38:29.244Z,54.58
2023-09-17T19:40:55.897Z,54.51
2023-09-17T19:43:23.325Z,54.60
2023-09-17T19:45:51.609Z,54.66
2023-09-17T19:48:18.554Z,54.73
2023-09-17T19:50:47.929Z,55.34
2023-09-17T19:53:15.274Z,54.77
2023-09-17T19:55:42.499Z,54.61
2023-09-17T19:58:09.347Z,54.56
2023-09-17T20:00:36.134Z,54.84
2023-09-17T20:03:02.951Z,54.90
2023-09-17T20:05:29.805Z,54.95
2023-09-17T20:07:56.527Z,55.20
2023-09-17T20:10:23.305Z,55.26
2023-09-17T20:12:49.935Z,54.84
2023-09-17T20:15:16.704Z,55.13
2023-09-17T20:17:43.513Z,54.84
2023-09-17T20:20:11.050Z,54.82
2023-09-17T20:22:43.137Z,55.52
2023-09-17T20:25:10.426Z,54.84
2023-09-17T20:27:37.090Z,55.14
2023-09-17T20:30:04.329Z,55.05
2023-09-17T20:32:31.050Z,55.06
2023-09-17T20:34:57.822Z,55.10
2023-09-17T20:37:24.652Z,55.46
2023-09-17T20:39:51.376Z,55.37
2023-09-17T20:42:18.175Z,55.67
2023-09-17T20:44:44.812Z,55.82
2023-09-17T20:47:11.563Z,55.45
2023-09-17T20:52:20.196Z,55.57
2023-09-17T20:54:46.936Z,55.73
2023-09-17T20:57:13.618Z,56.00
2023-09-17T20:59:40.288Z,56.20
2023-09-17T21:02:07.003Z,55.96
2023-09-17T21:04:33.989Z,56.10
2023-09-17T21:07:00.737Z,56.23
2023-09-17T21:09:28.592Z,56.15
2023-09-17T21:11:55.646Z,56.15
2023-09-17T21:14:25.056Z,56.05
2023-09-17T21:16:51.844Z,56.13
2023-09-17T21:19:18.535Z,56.38
2023-09-17T21:21:45.198Z,56.38
2023-09-17T21:24:11.917Z,56.37
2023-09-17T21:26:38.540Z,56.29
2023-09-17T21:29:05.211Z,56.26
2023-09-17T21:31:32.218Z,56.40
2023-09-17T21:33:59.014Z,56.58
2023-09-17T21:36:25.671Z,56.64
2023-09-17T21:38:52.863Z,56.66
2023-09-17T21:41:19.905Z,56.48
2023-09-17T21:43:46.690Z,56.79
2023-09-17T21:46:13.585Z,56.82
2023-09-17T21:48:40.226Z,56.69
2023-09-17T21:51:07.129Z,56.80
2023-09-17T21:53:33.909Z,57.02
2023-09-17T21:56:00.715Z,57.07
2023-09-17T21:58:27.514Z,57.20
2023-09-17T22:00:54.534Z,57.40
2023-09-17T22:03:21.960Z,57.25
2023-09-17T22:05:49.001Z,57.91
2023-09-17T22:08:15.930Z,58.39
2023-09-17T22:10:42.899Z,57.81
2023-09-17T22:13:09.615Z,57.99
2023-09-17T22:15:36.545Z,57.98
2023-09-17T22:18:04.027Z,57.56
2023-09-17T22:20:33.371Z,57.84
2023-09-17T22:23:00.351Z,57.71
2023-09-17T22:25:27.198Z,57.97
2023-09-17T22:27:54.903Z,58.30
2023-09-17T22:30:21.715Z,58.26
2023-09-17T22:32:48.372Z,58.00
2023-09-17T22:35:15.169Z,58.11
2023-09-17T22:37:42.029Z,57.90
2023-09-17T22:40:09.241Z,57.75
2023-09-17T22:42:36.095Z,57.75
2023-09-17T22:45:04.843Z,58.59
2023-09-17T22:47:32.273Z,58.62
2023-09-17T22:49:59.389Z,58.06
2023-09-17T22:52:26.212Z,58.14
2023-09-17T22:54:53.095Z,58.10
2023-09-17T22:57:19.997Z,57.97
2023-09-17T22:59:46.860Z,58.17
2023-09-17T23:02:13.804Z,58.30
2023-09-17T23:04:40.841Z,58.10
2023-09-17T23:07:10.134Z,58.46
2023-09-17T23:09:37.088Z,58.34
2023-09-17T23:12:04.217Z,57.87
2023-09-17T23:14:31.345Z,58.22
2023-09-17T23:16:58.186Z,57.92
2023-09-17T23:19:24.947Z,57.97
2023-09-17T23:21:51.663Z,57.98
2023-09-17T23:24:18.347Z,57.94
2023-09-17T23:26:45.008Z,57.48
2023-09-17T23:29:11.741Z,57.62
2023-09-17T23:31:41.258Z,57.56
2023-09-17T23:34:08.083Z,57.42
2023-09-17T23:36:35.024Z,57.80
2023-09-17T23:39:01.886Z,57.45
2023-09-17T23:41:28.772Z,57.81
2023-09-17T23:43:55.490Z,57.28
2023-09-17T23:46:22.270Z,57.63
2023-09-17T23:48:49.074Z,57.83
2023-09-17T23:51:16.101Z,58.19
2023-09-17T23:53:42.796Z,58.11
2023-09-17T23:56:09.720Z,57.91
2023-09-17T23:58:36.518Z,57.73
